createdAt,value
2023-04-14T00:01:56.017Z,99991.97
2023-04-14T00:07:02.742Z,99996.41
2023-04-14T00:12:11.290Z,99992.13
2023-04-14T00:17:18.281Z,99986.75
2023-04-14T00:22:25.125Z,99983.09
2023-04-14T00:27:33.315Z,99985.38
2023-04-14T00:32:40.228Z,99981.41
2023-04-14T00:37:47.031Z,99981.88
2023-04-14T00:42:54.980Z,99983.22
2023-04-14T00:48:02.362Z,99979.34
2023-04-14T00:53:10.182Z,99983.63
2023-04-14T00:58:18.419Z,99977.56
2023-04-14T01:03:26.115Z,99980.22
2023-04-14T01:08:32.919Z,99988.31
2023-04-14T01:13:54.535Z,99990.53
2023-04-14T01:19:22.130Z,99992.31
2023-04-14T01:25:04.988Z,99988.09
2023-04-14T01:30:44.124Z,99993.28
2023-04-14T01:35:59.211Z,99989.28
2023-04-14T01:41:10.452Z,99993.06
2023-04-14T01:46:19.493Z,99987.03
2023-04-14T01:51:29.295Z,99988.19
2023-04-14T01:56:37.961Z,99999.53
2023-04-14T02:01:48.674Z,99994.00
2023-04-14T02:07:00.129Z,99987.75
2023-04-14T02:12:09.802Z,99994.75
2023-04-14T02:17:16.966Z,99997.28
2023-04-14T02:22:27.662Z,100004.19
2023-04-14T02:27:43.261Z,100000.78
2023-04-14T02:32:59.108Z,99993.78
2023-04-14T02:38:15.313Z,99996.28
2023-04-14T02:43:28.341Z,100001.41
2023-04-14T02:48:37.784Z,100008.31
2023-04-14T02:53:45.891Z,100004.78
2023-04-14T02:59:12.819Z,99997.06
2023-04-14T03:04:33.001Z,99995.53
2023-04-14T03:09:44.939Z,100000.66
2023-04-14T03:14:53.011Z,100010.22
2023-04-14T03:20:01.984Z,100010.16
2023-04-14T03:25:12.742Z,100022.28
2023-04-14T03:30:26.310Z,100025.72
2023-04-14T03:35:33.940Z,100037.84
2023-04-14T03:40:44.695Z,100037.81
2023-04-14T03:45:52.220Z,100035.25
2023-04-14T03:51:02.578Z,100040.38
2023-04-14T03:56:15.471Z,100046.38
2023-04-14T04:01:26.097Z,100047.06
2023-04-14T04:06:33.316Z,100051.34
2023-04-14T04:11:43.716Z,100043.44
2023-04-14T04:16:52.439Z,100054.75
2023-04-14T04:22:01.824Z,100049.44
2023-04-14T04:27:24.171Z,100053.72
2023-04-14T04:32:31.943Z,100053.72
2023-04-14T04:37:40.263Z,100059.59
2023-04-14T04:42:48.279Z,100054.34
2023-04-14T04:47:56.418Z,100059.47
2023-04-14T04:53:02.445Z,100055.06
2023-04-14T04:58:10.514Z,100065.41
2023-04-14T05:03:16.971Z,100059.31
2023-04-14T05:08:23.786Z,100059.19
2023-04-14T05:13:31.548Z,100061.00
2023-04-14T05:18:38.517Z,100063.47
2023-04-14T05:23:47.287Z,100071.03
2023-04-14T05:28:55.296Z,100058.94
2023-04-14T05:34:01.918Z,100056.25
2023-04-14T05:39:11.037Z,100068.22
2023-04-14T05:44:18.838Z,100058.75
2023-04-14T05:49:25.057Z,100064.69
2023-04-14T05:54:31.394Z,100058.47
2023-04-14T05:59:40.668Z,100058.22
2023-04-14T06:04:47.885Z,100065.88
2023-04-14T06:09:54.746Z,100067.31
2023-04-14T06:15:02.589Z,100073.09
2023-04-14T06:20:11.402Z,100073.75
2023-04-14T06:25:18.130Z,100073.59
2023-04-14T06:30:28.799Z,100068.78
2023-04-14T06:35:35.972Z,100073.78
2023-04-14T06:40:42.349Z,100075.25
2023-04-14T06:45:51.253Z,100080.53
2023-04-14T06:50:58.338Z,100076.00
2023-04-14T06:56:06.906Z,100074.81
2023-04-14T07:01:15.025Z,100071.91
2023-04-14T07:06:21.724Z,100076.59
2023-04-14T07:11:30.118Z,100078.06
2023-04-14T07:16:37.956Z,100073.63
2023-04-14T07:21:45.703Z,100076.44
2023-04-14T07:26:52.706Z,100082.22
2023-04-14T07:32:01.628Z,100079.78
2023-04-14T07:37:08.262Z,100084.06
2023-04-14T07:42:15.680Z,100078.91
2023-04-14T07:47:23.281Z,100071.34
2023-04-14T07:52:29.477Z,100082.06
2023-04-14T07:57:37.083Z,100086.25
2023-04-14T08:02:45.273Z,100070.38
2023-04-14T08:07:52.371Z,100071.78
2023-04-14T08:13:00.136Z,100063.53
2023-04-14T08:18:09.171Z,100067.72
2023-04-14T08:23:15.629Z,100074.75
2023-04-14T08:28:21.909Z,100074.28
2023-04-14T08:33:29.808Z,100069.78
2023-04-14T08:38:36.201Z,100064.41
2023-04-14T08:43:42.891Z,100067.59
2023-04-14T08:48:56.714Z,100070.06
2023-04-14T08:54:10.504Z,100072.47
2023-04-14T08:59:17.100Z,100053.19
2023-04-14T09:04:25.964Z,100063.13
2023-04-14T09:09:32.805Z,100066.09
2023-04-14T09:14:40.451Z,100060.66
2023-04-14T09:20:35.590Z,100060.75
2023-04-14T09:25:17.849Z,100048.41
2023-04-14T09:30:24.766Z,100050.66
2023-04-14T09:35:47.783Z,100054.88
2023-04-14T09:40:56.451Z,100050.28
2023-04-14T09:46:08.703Z,100056.63
2023-04-14T09:51:17.976Z,100058.13
2023-04-14T09:56:29.279Z,100053.06
2023-04-14T10:01:37.139Z,100051.06
2023-04-14T10:06:49.765Z,100051.19
2023-04-14T10:12:13.677Z,100032.91
2023-04-14T10:17:20.109Z,100037.34
2023-04-14T10:22:29.546Z,100031.84
2023-04-14T10:27:37.152Z,100027.66
2023-04-14T10:32:47.584Z,100026.28
2023-04-14T10:37:55.972Z,100009.44
2023-04-14T10:43:02.263Z,100012.06
2023-04-14T10:48:12.030Z,100012.91
2023-04-14T10:53:19.644Z,100011.31
2023-04-14T10:58:30.894Z,100007.66
2023-04-14T11:03:46.775Z,100008.28
2023-04-14T11:08:57.751Z,99995.97
2023-04-14T11:14:13.480Z,100000.59
2023-04-14T11:19:20.419Z,99999.19
2023-04-14T11:24:28.323Z,99985.31
2023-04-14T11:29:34.764Z,99993.13
2023-04-14T11:34:41.824Z,99970.75
2023-04-14T11:39:51.032Z,99978.53
2023-04-14T11:44:59.767Z,99974.91
2023-04-14T11:50:07.493Z,99969.97
2023-04-14T11:55:16.087Z,99960.50
2023-04-14T12:00:23.142Z,99953.16
2023-04-14T12:05:31.606Z,99958.94
2023-04-14T12:10:41.072Z,99958.53
2023-04-14T12:15:48.079Z,99947.53
2023-04-14T12:20:56.538Z,99938.47
2023-04-14T12:26:04.545Z,99926.72
2023-04-14T12:31:12.377Z,99931.97
2023-04-14T12:36:19.342Z,99928.78
2023-04-14T12:41:28.554Z,99933.97
2023-04-14T12:46:35.075Z,99923.34
2023-04-14T12:51:42.031Z,99910.63
2023-04-14T12:56:49.951Z,59898.34
2023-04-14T13:01:56.307Z,59898.34
2023-04-14T13:07:02.915Z,59898.34
2023-04-14T13:12:11.029Z,59898.34
2023-04-14T13:17:17.960Z,59898.34
2023-04-14T13:22:24.774Z,59898.34
2023-04-14T13:27:32.722Z,59898.34
2023-04-14T13:32:39.380Z,59898.34
2023-04-14T13:37:45.942Z,59898.34
2023-04-14T13:42:53.724Z,59898.34
2023-04-14T13:48:01.836Z,59898.34
2023-04-14T13:53:11.539Z,59898.34
2023-04-14T13:58:19.853Z,59898.34
2023-04-14T14:03:28.007Z,59898.34
2023-04-14T14:08:39.441Z,59898.34
2023-04-14T14:13:47.377Z,59898.34
2023-04-14T14:18:53.990Z,59898.34
2023-04-14T14:24:00.806Z,59898.34
2023-04-14T14:29:11.299Z,59898.34
2023-04-14T14:34:18.294Z,59898.34
2023-04-14T14:39:25.164Z,59898.34
2023-04-14T14:44:33.140Z,59898.34
2023-04-14T14:49:46.021Z,59898.34
2023-04-14T14:54:59.506Z,59898.34
2023-04-14T15:00:09.511Z,59898.34
2023-04-14T15:05:16.009Z,59898.34
2023-04-14T15:10:22.614Z,59898.34
2023-04-14T15:15:30.500Z,59898.34
2023-04-14T15:20:37.238Z,59898.34
2023-04-14T15:25:43.866Z,59898.34
2023-04-14T15:30:51.793Z,59898.34
2023-04-14T15:35:58.441Z,59898.34
2023-04-14T15:41:05.968Z,59898.34
2023-04-14T15:46:14.906Z,59898.34
2023-04-14T15:51:21.035Z,59898.34
2023-04-14T15:56:27.858Z,59898.34
2023-04-14T16:01:35.986Z,59898.34
2023-04-14T16:06:42.750Z,59898.34
2023-04-14T16:11:49.776Z,59898.34
2023-04-14T16:17:00.190Z,59898.34
2023-04-14T16:22:06.870Z,59898.34
2023-04-14T16:27:13.744Z,59898.34
2023-04-14T16:32:22.642Z,59898.34
2023-04-14T16:37:29.252Z,59898.34
2023-04-14T16:42:37.929Z,59898.34
2023-04-14T16:47:46.597Z,59898.34
2023-04-14T16:52:54.486Z,59898.34
2023-04-14T16:58:01.701Z,59898.34
2023-04-14T17:03:10.558Z,59898.34
2023-04-14T17:08:17.965Z,59898.34
2023-04-14T17:13:25.372Z,59898.34
2023-04-14T17:18:33.875Z,59898.34
2023-04-14T17:23:41.533Z,59898.34
2023-04-14T17:28:52.550Z,99910.63
2023-04-14T17:34:11.060Z,99975.66
2023-04-14T17:39:20.830Z,99982.47
2023-04-14T17:44:37.094Z,99990.66
2023-04-14T17:49:46.641Z,99990.00
2023-04-14T17:55:01.576Z,99988.88
2023-04-14T18:00:13.565Z,99996.16
2023-04-14T18:05:29.055Z,100000.06
2023-04-14T18:10:39.179Z,100011.88
2023-04-14T18:15:52.649Z,100012.25
2023-04-14T18:21:03.478Z,100022.25
2023-04-14T18:31:24.994Z,100028.91
2023-04-14T18:36:36.338Z,100038.81
2023-04-14T18:41:46.372Z,100042.53
2023-04-14T18:46:56.257Z,100044.44
2023-04-14T18:52:08.576Z,100050.03
2023-04-14T18:57:28.383Z,100048.50
2023-04-14T19:02:43.206Z,100052.13
2023-04-14T19:07:55.557Z,100055.69
2023-04-14T19:13:07.718Z,100049.94
2023-04-14T19:18:22.150Z,100055.97
2023-04-14T19:23:32.299Z,100051.88
2023-04-14T19:28:41.248Z,100045.19
2023-04-14T19:33:50.353Z,100049.66
2023-04-14T19:39:01.495Z,100054.88
2023-04-14T19:44:09.343Z,100057.31
2023-04-14T19:49:17.386Z,100052.00
2023-04-14T19:54:30.293Z,100057.03
2023-04-14T19:59:39.427Z,100054.44
2023-04-14T20:04:50.046Z,100048.59
2023-04-14T20:10:02.231Z,100052.19
2023-04-14T20:15:16.804Z,100059.25
2023-04-14T20:20:27.245Z,100062.06
2023-04-14T20:25:38.070Z,100054.44
2023-04-14T20:30:49.059Z,100058.81
2023-04-14T20:35:58.627Z,100055.53
2023-04-14T20:41:09.130Z,100047.00
2023-04-14T20:46:17.094Z,100047.97
2023-04-14T20:51:24.511Z,100050.72
2023-04-14T20:56:34.301Z,100041.28
2023-04-14T21:01:43.283Z,100043.22
2023-04-14T21:06:50.689Z,100040.88
2023-04-14T21:12:14.349Z,100038.53
2023-04-14T21:17:24.735Z,100050.81
2023-04-14T21:22:31.483Z,100031.75
2023-04-14T21:27:39.774Z,100034.59
2023-04-14T21:32:46.508Z,100029.41
2023-04-14T21:37:53.408Z,100027.16
2023-04-14T21:43:01.815Z,100028.22
2023-04-14T21:48:08.968Z,100032.03
2023-04-14T21:53:15.730Z,100036.22
2023-04-14T21:58:23.881Z,100029.56
2023-04-14T22:03:30.488Z,100032.44
2023-04-14T22:08:38.815Z,100024.63
2023-04-14T22:13:47.153Z,100022.88
2023-04-14T22:18:54.370Z,100026.47
2023-04-14T22:24:01.295Z,100027.31
2023-04-14T22:29:11.454Z,100025.44
2023-04-14T22:34:18.686Z,100027.31
2023-04-14T22:39:25.305Z,100024.56
2023-04-14T22:44:33.249Z,100028.81
2023-04-14T22:49:41.156Z,100030.50
2023-04-14T22:54:48.993Z,100021.75
2023-04-14T22:59:57.163Z,100025.13
2023-04-14T23:05:04.548Z,100028.59
2023-04-14T23:10:12.777Z,100012.91
2023-04-14T23:15:21.864Z,100011.25
2023-04-14T23:20:27.994Z,100017.28
2023-04-14T23:25:34.715Z,100005.88
2023-04-14T23:38:28.386Z,100004.19
2023-04-14T23:43:36.816Z,100018.06
2023-04-14T23:48:43.510Z,100017.22
2023-04-14T23:53:53.420Z,100022.25
2023-04-14T23:59:00.423Z,100016.19
